sensor_id;sensor_type;location;lat;lon;timestamp;pressure;altitude;pressure_sealevel;temperature;humidity
31357;BME280;60001;48.404;11.738;2023-08-30T00:00:15;95659.25;;;14.79;95.55
31357;BME280;60001;48.404;11.738;2023-08-30T00:01:47;95662.59;;;14.71;96.18
31357;BME280;60001;48.404;11.738;2023-08-30T00:03:19;95665.16;;;14.76;95.87
31357;BME280;60001;48.404;11.738;2023-08-30T00:04:50;95664.88;;;14.78;95.96
31357;BME280;60001;48.404;11.738;2023-08-30T00:06:21;95663.59;;;14.75;95.70
31357;BME280;60001;48.404;11.738;2023-08-30T00:07:53;95670.78;;;14.75;96.14
31357;BME280;60001;48.404;11.738;2023-08-30T00:09:24;95666.44;;;14.79;95.33
31357;BME280;60001;48.404;11.738;2023-08-30T00:10:55;95660.63;;;14.77;95.90
31357;BME280;60001;48.404;11.738;2023-08-30T00:12:30;95661.13;;;14.79;95.72
31357;BME280;60001;48.404;11.738;2023-08-30T00:14:02;95665.75;;;14.73;96.44
31357;BME280;60001;48.404;11.738;2023-08-30T00:15:33;95655.78;;;14.65;96.45
31357;BME280;60001;48.404;11.738;2023-08-30T00:17:05;95657.56;;;14.70;96.35
31357;BME280;60001;48.404;11.738;2023-08-30T00:18:37;95663.09;;;14.73;96.09
31357;BME280;60001;48.404;11.738;2023-08-30T00:20:08;95661.88;;;14.66;96.98
31357;BME280;60001;48.404;11.738;2023-08-30T00:21:40;95665.84;;;14.68;96.52
31357;BME280;60001;48.404;11.738;2023-08-30T00:23:11;95660.03;;;14.66;96.52
31357;BME280;60001;48.404;11.738;2023-08-30T00:24:43;95665.44;;;14.61;97.01
31357;BME280;60001;48.404;11.738;2023-08-30T00:26:14;95657.19;;;14.63;97.37
31357;BME280;60001;48.404;11.738;2023-08-30T00:27:47;95660.91;;;14.62;96.97
31357;BME280;60001;48.404;11.738;2023-08-30T00:29:18;95666.13;;;14.67;97.41
31357;BME280;60001;48.404;11.738;2023-08-30T00:30:53;95664.28;;;14.67;96.73
31357;BME280;60001;48.404;11.738;2023-08-30T00:32:24;95663.19;;;14.68;96.53
31357;BME280;60001;48.404;11.738;2023-08-30T00:33:56;95658.16;;;14.67;96.78
31357;BME280;60001;48.404;11.738;2023-08-30T00:35:26;95656.94;;;14.59;96.92
31357;BME280;60001;48.404;11.738;2023-08-30T00:36:58;95659.34;;;14.61;97.12
31357;BME280;60001;48.404;11.738;2023-08-30T00:38:33;95658.25;;;14.62;97.15
31357;BME280;60001;48.404;11.738;2023-08-30T00:40:05;95664.34;;;14.62;96.89
31357;BME280;60001;48.404;11.738;2023-08-30T00:41:37;95659.75;;;14.68;97.33
31357;BME280;60001;48.404;11.738;2023-08-30T00:43:09;95662.28;;;14.59;96.73
31357;BME280;60001;48.404;11.738;2023-08-30T00:44:40;95656.94;;;14.59;97.39
31357;BME280;60001;48.404;11.738;2023-08-30T00:46:12;95659.03;;;14.62;97.03
31357;BME280;60001;48.404;11.738;2023-08-30T00:47:45;95665.63;;;14.65;96.98
31357;BME280;60001;48.404;11.738;2023-08-30T00:49:16;95669.78;;;14.71;96.99
31357;BME280;60001;48.404;11.738;2023-08-30T00:50:48;95667.41;;;14.69;96.55
31357;BME280;60001;48.404;11.738;2023-08-30T00:52:19;95664.16;;;14.72;96.55
31357;BME280;60001;48.404;11.738;2023-08-30T00:53:51;95658.56;;;14.74;96.44
31357;BME280;60001;48.404;11.738;2023-08-30T00:55:22;95666.13;;;14.67;96.27
31357;BME280;60001;48.404;11.738;2023-08-30T00:56:54;95640.03;;;14.55;96.29
31357;BME280;60001;48.404;11.738;2023-08-30T00:58:27;95656.38;;;14.62;96.77
31357;BME280;60001;48.404;11.738;2023-08-30T00:59:59;95663.94;;;14.55;96.73
31357;BME280;60001;48.404;11.738;2023-08-30T01:01:31;95663.56;;;14.62;96.56
31357;BME280;60001;48.404;11.738;2023-08-30T01:03:05;95665.44;;;14.61;96.81
31357;BME280;60001;48.404;11.738;2023-08-30T01:04:37;95665.06;;;14.68;96.48
31357;BME280;60001;48.404;11.738;2023-08-30T01:06:08;95670.56;;;14.71;96.34
31357;BME280;60001;48.404;11.738;2023-08-30T01:07:40;95670.88;;;14.70;95.79
31357;BME280;60001;48.404;11.738;2023-08-30T01:09:11;95669.88;;;14.66;96.57
31357;BME280;60001;48.404;11.738;2023-08-30T01:10:52;95673.28;;;14.52;96.61
31357;BME280;60001;48.404;11.738;2023-08-30T01:12:32;95676.63;;;14.58;96.06
31357;BME280;60001;48.404;11.738;2023-08-30T01:14:13;95677.34;;;14.64;96.28
31357;BME280;60001;48.404;11.738;2023-08-30T01:15:47;95682.38;;;14.65;96.08
31357;BME280;60001;48.404;11.738;2023-08-30T01:17:21;95668.50;;;14.68;96.34
31357;BME280;60001;48.404;11.738;2023-08-30T01:18:56;95670.09;;;14.69;95.91
31357;BME280;60001;48.404;11.738;2023-08-30T01:20:28;95663.69;;;14.70;95.73
31357;BME280;60001;48.404;11.738;2023-08-30T01:22:08;95665.84;;;14.68;96.01
31357;BME280;60001;48.404;11.738;2023-08-30T01:23:48;95663.97;;;14.69;95.41
31357;BME280;60001;48.404;11.738;2023-08-30T01:25:32;95663.75;;;14.65;95.61
31357;BME280;60001;48.404;11.738;2023-08-30T01:27:11;95657.28;;;14.71;95.30
31357;BME280;60001;48.404;11.738;2023-08-30T01:28:43;95655.31;;;14.63;95.03
31357;BME280;60001;48.404;11.738;2023-08-30T01:30:18;95661.00;;;14.57;95.55
31357;BME280;60001;48.404;11.738;2023-08-30T01:31:51;95654.81;;;14.61;95.68
31357;BME280;60001;48.404;11.738;2023-08-30T01:33:25;95663.75;;;14.65;94.97
31357;BME280;60001;48.404;11.738;2023-08-30T01:34:57;95659.84;;;14.63;95.27
31357;BME280;60001;48.404;11.738;2023-08-30T01:36:31;95657.75;;;14.60;95.88
31357;BME280;60001;48.404;11.738;2023-08-30T01:38:03;95658.34;;;14.57;95.47
31357;BME280;60001;48.404;11.738;2023-08-30T01:39:36;95662.56;;;14.58;95.44
31357;BME280;60001;48.404;11.738;2023-08-30T01:41:08;95661.47;;;14.59;95.45
31357;BME280;60001;48.404;11.738;2023-08-30T01:42:44;95664.72;;;14.56;95.80
31357;BME280;60001;48.404;11.738;2023-08-30T01:44:16;95666.09;;;14.53;95.87
31357;BME280;60001;48.404;11.738;2023-08-30T01:45:48;95666.69;;;14.50;96.66
31357;BME280;60001;48.404;11.738;2023-08-30T01:47:19;95671.41;;;14.53;96.48
31357;BME280;60001;48.404;11.738;2023-08-30T01:48:53;95668.75;;;14.53;96.25
31357;BME280;60001;48.404;11.738;2023-08-30T01:50:25;95665.59;;;14.51;95.88
31357;BME280;60001;48.404;11.738;2023-08-30T01:51:59;95669.34;;;14.50;96.19
31357;BME280;60001;48.404;11.738;2023-08-30T01:53:30;95665.94;;;14.44;95.65
31357;BME280;60001;48.404;11.738;2023-08-30T01:55:06;95667.50;;;14.45;96.05
31357;BME280;60001;48.404;11.738;2023-08-30T01:56:38;95670.28;;;14.40;96.32
31357;BME280;60001;48.404;11.738;2023-08-30T01:58:11;95673.66;;;14.46;95.88
31357;BME280;60001;48.404;11.738;2023-08-30T01:59:42;95676.31;;;14.46;96.87
31357;BME280;60001;48.404;11.738;2023-08-30T02:01:14;95668.56;;;14.49;96.45
31357;BME280;60001;48.404;11.738;2023-08-30T02:02:45;95674.16;;;14.48;96.01
31357;BME280;60001;48.404;11.738;2023-08-30T02:04:17;95672.78;;;14.50;96.27
31357;BME280;60001;48.404;11.738;2023-08-30T02:05:57;95669.16;;;14.46;96.17
31357;BME280;60001;48.404;11.738;2023-08-30T02:07:39;95668.06;;;14.47;96.01
31357;BME280;60001;48.404;11.738;2023-08-30T02:09:18;95669.34;;;14.50;95.52
31357;BME280;60001;48.404;11.738;2023-08-30T02:10:56;95667.47;;;14.50;96.05
31357;BME280;60001;48.404;11.738;2023-08-30T02:12:33;95668.06;;;14.47;96.61
31357;BME280;60001;48.404;11.738;2023-08-30T02:14:10;95680.19;;;14.53;96.52
31357;BME280;60001;48.404;11.738;2023-08-30T02:15:43;95674.34;;;14.51;96.08
31357;BME280;60001;48.404;11.738;2023-08-30T02:17:15;95673.00;;;14.54;96.07
31357;BME280;60001;48.404;11.738;2023-08-30T02:18:49;95669.25;;;14.55;95.27
31357;BME280;60001;48.404;11.738;2023-08-30T02:20:20;95671.41;;;14.53;96.03
31357;BME280;60001;48.404;11.738;2023-08-30T02:21:52;95668.47;;;14.55;95.80
31357;BME280;60001;48.404;11.738;2023-08-30T02:23:23;95668.19;;;14.56;96.21
31357;BME280;60001;48.404;11.738;2023-08-30T02:24:55;95659.72;;;14.54;95.97
31357;BME280;60001;48.404;11.738;2023-08-30T02:26:26;95669.75;;;14.57;95.59
31357;BME280;60001;48.404;11.738;2023-08-30T02:27:58;95672.72;;;14.56;95.74
31357;BME280;60001;48.404;11.738;2023-08-30T02:29:30;95667.97;;;14.52;96.37
31357;BME280;60001;48.404;11.738;2023-08-30T02:31:02;95669.56;;;14.53;96.20
31357;BME280;60001;48.404;11.738;2023-08-30T02:32:33;95665.31;;;14.52;96.57
31357;BME280;60001;48.404;11.738;2023-08-30T02:34:05;95650.59;;;14.41;96.24
31357;BME280;60001;48.404;11.738;2023-08-30T02:35:36;95672.72;;;14.56;95.71
31357;BME280;60001;48.404;11.738;2023-08-30T02:37:08;95668.97;;;14.57;96.42
31357;BME280;60001;48.404;11.738;2023-08-30T02:38:38;95667.09;;;14.57;96.63
31357;BME280;60001;48.404;11.738;2023-08-30T02:40:11;95675.28;;;14.61;96.36
31357;BME280;60001;48.404;11.738;2023-08-30T02:41:42;95666.97;;;14.48;96.79
31357;BME280;60001;48.404;11.738;2023-08-30T02:43:13;95672.41;;;14.57;96.16
31357;BME280;60001;48.404;11.738;2023-08-30T02:44:46;95672.09;;;14.59;95.72
31357;BME280;60001;48.404;11.738;2023-08-30T02:46:18;95670.53;;;14.58;96.07
31357;BME280;60001;48.404;11.738;2023-08-30T02:47:48;95667.38;;;14.56;95.68
31357;BME280;60001;48.404;11.738;2023-08-30T02:49:23;95673.09;;;14.49;96.06
31357;BME280;60001;48.404;11.738;2023-08-30T02:50:54;95668.56;;;14.49;96.75
31357;BME280;60001;48.404;11.738;2023-08-30T02:52:26;95674.00;;;14.39;97.47
31357;BME280;60001;48.404;11.738;2023-08-30T02:53:57;95669.63;;;14.48;97.35
31357;BME280;60001;48.404;11.738;2023-08-30T02:55:28;95674.06;;;14.53;96.18
31357;BME280;60001;48.404;11.738;2023-08-30T02:56:59;95674.28;;;14.57;96.09
31357;BME280;60001;48.404;11.738;2023-08-30T02:58:31;95681.16;;;14.58;96.11
31357;BME280;60001;48.404;11.738;2023-08-30T03:00:04;95673.56;;;14.51;96.71
31357;BME280;60001;48.404;11.738;2023-08-30T03:01:36;95674.06;;;14.53;97.01
31357;BME280;60001;48.404;11.738;2023-08-30T03:03:07;95673.50;;;14.56;96.97
31357;BME280;60001;48.404;11.738;2023-08-30T03:04:39;95673.19;;;14.58;96.84
31357;BME280;60001;48.404;11.738;2023-08-30T03:06:10;95670.34;;;14.54;96.62
31357;BME280;60001;48.404;11.738;2023-08-30T03:07:41;95676.16;;;14.56;96.17
31357;BME280;60001;48.404;11.738;2023-08-30T03:09:12;95674.19;;;14.62;95.89
31357;BME280;60001;48.404;11.738;2023-08-30T03:10:44;95677.03;;;14.65;95.76
31357;BME280;60001;48.404;11.738;2023-08-30T03:12:15;95673.59;;;14.65;95.93
31357;BME280;60001;48.404;11.738;2023-08-30T03:13:47;95669.44;;;14.59;96.87
31357;BME280;60001;48.404;11.738;2023-08-30T03:15:19;95673.97;;;14.58;96.52
31357;BME280;60001;48.404;11.738;2023-08-30T03:16:51;95662.06;;;14.56;96.96
31357;BME280;60001;48.404;11.738;2023-08-30T03:18:23;95670.75;;;14.61;96.59
31357;BME280;60001;48.404;11.738;2023-08-30T03:19:53;95662.06;;;14.56;97.07
31357;BME280;60001;48.404;11.738;2023-08-30T03:21:25;95665.44;;;14.61;96.73
31357;BME280;60001;48.404;11.738;2023-08-30T03:22:56;95659.34;;;14.61;96.81
31357;BME280;60001;48.404;11.738;2023-08-30T03:24:28;95658.25;;;14.62;97.19
31357;BME280;60001;48.404;11.738;2023-08-30T03:25:59;95659.34;;;14.61;97.12
31357;BME280;60001;48.404;11.738;2023-08-30T03:27:32;95651.00;;;14.67;96.52
31357;BME280;60001;48.404;11.738;2023-08-30T03:29:03;95653.72;;;14.62;96.29
31357;BME280;60001;48.404;11.738;2023-08-30T03:30:36;95654.69;;;14.66;96.75
31357;BME280;60001;48.404;11.738;2023-08-30T03:32:07;95654.03;;;14.61;96.66
31357;BME280;60001;48.404;11.738;2023-08-30T03:33:39;95654.53;;;14.63;96.25
31357;BME280;60001;48.404;11.738;2023-08-30T03:35:11;95656.16;;;14.59;96.20
31357;BME280;60001;48.404;11.738;2023-08-30T03:36:42;95656.69;;;14.61;95.97
31357;BME280;60001;48.404;11.738;2023-08-30T03:38:14;95656.16;;;14.59;96.61
31357;BME280;60001;48.404;11.738;2023-08-30T03:39:45;95649.78;;;14.60;95.97
31357;BME280;60001;48.404;11.738;2023-08-30T03:41:18;95652.53;;;14.55;96.16
31357;BME280;60001;48.404;11.738;2023-08-30T03:42:48;95649.38;;;14.52;96.51
31357;BME280;60001;48.404;11.738;2023-08-30T03:44:20;95655.75;;;14.51;96.62
31357;BME280;60001;48.404;11.738;2023-08-30T03:45:52;95659.81;;;14.49;96.97
31357;BME280;60001;48.404;11.738;2023-08-30T03:47:24;95664.03;;;14.50;96.74
31357;BME280;60001;48.404;11.738;2023-08-30T03:48:56;95659.31;;;14.47;96.42
31357;BME280;60001;48.404;11.738;2023-08-30T03:50:27;95663.84;;;14.46;96.49
31357;BME280;60001;48.404;11.738;2023-08-30T03:51:58;95664.84;;;14.45;96.49
31357;BME280;60001;48.404;11.738;2023-08-30T03:53:29;95662.00;;;14.42;96.94
31357;BME280;60001;48.404;11.738;2023-08-30T03:55:01;95672.34;;;14.43;96.91
31357;BME280;60001;48.404;11.738;2023-08-30T03:56:32;95665.47;;;14.42;96.34
31357;BME280;60001;48.404;11.738;2023-08-30T03:58:04;95670.28;;;14.40;97.28
31357;BME280;60001;48.404;11.738;2023-08-30T03:59:34;95662.50;;;14.44;96.99
31357;BME280;60001;48.404;11.738;2023-08-30T04:01:07;95664.84;;;14.45;96.66
31357;BME280;60001;48.404;11.738;2023-08-30T04:02:38;95661.19;;;14.46;96.50
31357;BME280;60001;48.404;11.738;2023-08-30T04:04:10;95665.41;;;14.47;96.63
31357;BME280;60001;48.404;11.738;2023-08-30T04:05:41;95660.09;;;14.47;97.03
31357;BME280;60001;48.404;11.738;2023-08-30T04:07:13;95657.63;;;14.51;96.64
31357;BME280;60001;48.404;11.738;2023-08-30T04:08:43;95658.94;;;14.53;96.54
31357;BME280;60001;48.404;11.738;2023-08-30T04:10:16;95654.69;;;14.52;95.91
31357;BME280;60001;48.404;11.738;2023-08-30T04:11:46;95644.44;;;14.46;95.87
31357;BME280;60001;48.404;11.738;2023-08-30T04:13:18;95651.88;;;14.44;96.29
31357;BME280;60001;48.404;11.738;2023-08-30T04:14:49;95651.59;;;14.45;96.11
31357;BME280;60001;48.404;11.738;2023-08-30T04:16:22;95653.44;;;14.45;96.71
31357;BME280;60001;48.404;11.738;2023-08-30T04:17:53;95656.69;;;14.42;95.92
31357;BME280;60001;48.404;11.738;2023-08-30T04:19:24;95660.16;;;14.42;95.80
31357;BME280;60001;48.404;11.738;2023-08-30T04:20:59;95660.16;;;14.42;96.62
31357;BME280;60001;48.404;11.738;2023-08-30T04:22:32;95660.16;;;14.42;96.77
31357;BME280;60001;48.404;11.738;2023-08-30T04:24:05;95667.31;;;14.42;97.54
31357;BME280;60001;48.404;11.738;2023-08-30T04:25:37;95661.19;;;14.46;97.45
31357;BME280;60001;48.404;11.738;2023-08-30T04:27:08;95662.81;;;14.42;97.95
31357;BME280;60001;48.404;11.738;2023-08-30T04:28:40;95662.00;;;14.42;98.22
31357;BME280;60001;48.404;11.738;2023-08-30T04:30:12;95665.13;;;14.30;98.36
31357;BME280;60001;48.404;11.738;2023-08-30T04:31:45;95652.13;;;14.29;97.97
31357;BME280;60001;48.404;11.738;2023-08-30T04:33:16;95654.50;;;14.30;98.45
31357;BME280;60001;48.404;11.738;2023-08-30T04:34:48;95665.72;;;14.27;99.13
31357;BME280;60001;48.404;11.738;2023-08-30T04:36:19;95667.56;;;14.26;99.39
31357;BME280;60001;48.404;11.738;2023-08-30T04:37:50;95665.41;;;14.29;100.00
31357;BME280;60001;48.404;11.738;2023-08-30T04:39:21;95661.09;;;14.33;100.00
31357;BME280;60001;48.404;11.738;2023-08-30T04:40:57;95660.28;;;14.32;100.00
31357;BME280;60001;48.404;11.738;2023-08-30T04:42:28;95668.78;;;14.34;100.00
31357;BME280;60001;48.404;11.738;2023-08-30T04:44:00;95657.06;;;14.35;100.00
31357;BME280;60001;48.404;11.738;2023-08-30T04:45:31;95661.41;;;14.45;100.00
31357;BME280;60001;48.404;11.738;2023-08-30T04:47:04;95660.88;;;14.48;100.00
31357;BME280;60001;48.404;11.738;2023-08-30T04:48:35;95660.09;;;14.47;100.00
31357;BME280;60001;48.404;11.738;2023-08-30T04:50:07;95660.00;;;14.52;99.37
31357;BME280;60001;48.404;11.738;2023-08-30T04:51:38;95660.28;;;14.51;100.00
31357;BME280;60001;48.404;11.738;2023-08-30T04:53:09;95666.09;;;14.53;100.00
31357;BME280;60001;48.404;11.738;2023-08-30T04:54:40;95674.66;;;14.50;99.05
31357;BME280;60001;48.404;11.738;2023-08-30T04:56:13;95682.03;;;14.53;99.87
31357;BME280;60001;48.404;11.738;2023-08-30T04:57:46;95669.34;;;14.50;99.69
31357;BME280;60001;48.404;11.738;2023-08-30T04:59:18;95677.31;;;14.50;99.35
31357;BME280;60001;48.404;11.738;2023-08-30T05:00:48;95675.44;;;14.50;99.13
31357;BME280;60001;48.404;11.738;2023-08-30T05:02:22;95676.22;;;14.51;99.68
31357;BME280;60001;48.404;11.738;2023-08-30T05:03:52;95681.47;;;14.56;99.82
31357;BME280;60001;48.404;11.738;2023-08-30T05:05:24;95680.59;;;14.61;99.10
31357;BME280;60001;48.404;11.738;2023-08-30T05:06:56;95673.59;;;14.65;100.00
31357;BME280;60001;48.404;11.738;2023-08-30T05:08:26;95683.38;;;14.69;99.09
31357;BME280;60001;48.404;11.738;2023-08-30T05:09:58;95674.59;;;14.69;99.41
31357;BME280;60001;48.404;11.738;2023-08-30T05:11:29;95668.09;;;14.61;99.64
31357;BME280;60001;48.404;11.738;2023-08-30T05:13:01;95677.25;;;14.69;99.80
31357;BME280;60001;48.404;11.738;2023-08-30T05:14:31;95677.25;;;14.69;100.00
31357;BME280;60001;48.404;11.738;2023-08-30T05:16:03;95678.53;;;14.71;100.00
31357;BME280;60001;48.404;11.738;2023-08-30T05:17:36;95681.59;;;14.78;99.10
31357;BME280;60001;48.404;11.738;2023-08-30T05:19:07;95669.69;;;14.76;99.36
31357;BME280;60001;48.404;11.738;2023-08-30T05:20:39;95670.47;;;14.76;100.00
31357;BME280;60001;48.404;11.738;2023-08-30T05:22:10;95680.03;;;14.77;99.84
31357;BME280;60001;48.404;11.738;2023-08-30T05:23:41;95674.72;;;14.77;99.56
31357;BME280;60001;48.404;11.738;2023-08-30T05:25:12;95677.84;;;14.79;99.73
31357;BME280;60001;48.404;11.738;2023-08-30T05:26:44;95674.91;;;14.81;99.30
31357;BME280;60001;48.404;11.738;2023-08-30T05:28:17;95671.47;;;14.80;100.00
31357;BME280;60001;48.404;11.738;2023-08-30T05:29:48;95674.63;;;14.83;99.85
31357;BME280;60001;48.404;11.738;2023-08-30T05:31:19;95679.34;;;14.86;99.92
31357;BME280;60001;48.404;11.738;2023-08-30T05:32:52;95676.31;;;14.92;99.01
31357;BME280;60001;48.404;11.738;2023-08-30T05:34:23;95680.25;;;14.95;99.32
31357;BME280;60001;48.404;11.738;2023-08-30T05:35:57;95678.88;;;14.97;99.09
31357;BME280;60001;48.404;11.738;2023-08-30T05:37:29;95676.00;;;14.94;98.69
31357;BME280;60001;48.404;11.738;2023-08-30T05:38:59;95676.53;;;14.96;98.57
31357;BME280;60001;48.404;11.738;2023-08-30T05:40:31;95676.41;;;15.01;97.91
31357;BME280;60001;48.404;11.738;2023-08-30T05:42:02;95674.25;;;15.03;97.72
31357;BME280;60001;48.404;11.738;2023-08-30T05:43:34;95675.03;;;15.03;97.07
31357;BME280;60001;48.404;11.738;2023-08-30T05:45:05;95673.34;;;15.07;97.51
31357;BME280;60001;48.404;11.738;2023-08-30T05:46:37;95678.19;;;15.05;97.79
31357;BME280;60001;48.404;11.738;2023-08-30T05:48:10;95671.59;;;15.03;98.48
31357;BME280;60001;48.404;11.738;2023-08-30T05:49:41;95672.88;;;15.05;98.54
31357;BME280;60001;48.404;11.738;2023-08-30T05:51:12;95669.72;;;15.03;98.01
31357;BME280;60001;48.404;11.738;2023-08-30T05:52:44;95671.47;;;15.08;97.40
31357;BME280;60001;48.404;11.738;2023-08-30T05:54:18;95665.59;;;15.11;97.20
31357;BME280;60001;48.404;11.738;2023-08-30T05:55:50;95678.09;;;15.11;98.00
31357;BME280;60001;48.404;11.738;2023-08-30T05:57:21;95673.75;;;15.15;97.89
31357;BME280;60001;48.404;11.738;2023-08-30T05:58:54;95668.94;;;15.17;97.44
31357;BME280;60001;48.404;11.738;2023-08-30T06:00:26;95669.53;;;15.14;98.02
31357;BME280;60001;48.404;11.738;2023-08-30T06:01:57;95680.16;;;15.14;98.19
31357;BME280;60001;48.404;11.738;2023-08-30T06:03:29;95668.81;;;15.22;97.67
31357;BME280;60001;48.404;11.738;2023-08-30T06:05:01;95665.69;;;15.20;97.45
31357;BME280;60001;48.404;11.738;2023-08-30T06:06:33;95667.34;;;15.16;97.32
31357;BME280;60001;48.404;11.738;2023-08-30T06:08:05;95672.78;;;15.24;96.58
31357;BME280;60001;48.404;11.738;2023-08-30T06:09:35;95675.06;;;15.31;95.64
31357;BME280;60001;48.404;11.738;2023-08-30T06:11:08;95675.13;;;15.26;95.85
31357;BME280;60001;48.404;11.738;2023-08-30T06:12:39;95678.59;;;15.26;96.06
31357;BME280;60001;48.404;11.738;2023-08-30T06:14:10;95682.03;;;15.13;94.82
31357;BME280;60001;48.404;11.738;2023-08-30T06:15:42;95677.59;;;15.22;95.34
31357;BME280;60001;48.404;11.738;2023-08-30T06:17:15;95680.75;;;15.24;95.31
31357;BME280;60001;48.404;11.738;2023-08-30T06:18:48;95669.44;;;15.19;94.98
31357;BME280;60001;48.404;11.738;2023-08-30T06:20:19;95680.16;;;15.27;95.38
31357;BME280;60001;48.404;11.738;2023-08-30T06:21:50;95676.72;;;15.27;95.76
31357;BME280;60001;48.404;11.738;2023-08-30T06:23:21;95687.03;;;15.15;94.80
31357;BME280;60001;48.404;11.738;2023-08-30T06:24:53;95678.19;;;15.19;94.93
31357;BME280;60001;48.404;11.738;2023-08-30T06:26:23;95658.59;;;15.15;94.42
31357;BME280;60001;48.404;11.738;2023-08-30T06:27:57;95682.03;;;15.27;93.41
31357;BME280;60001;48.404;11.738;2023-08-30T06:29:27;95684.69;;;15.27;93.33
31357;BME280;60001;48.404;11.738;2023-08-30T06:30:59;95679.97;;;15.24;93.77
31357;BME280;60001;48.404;11.738;2023-08-30T06:32:30;95682.63;;;15.24;94.71
31357;BME280;60001;48.404;11.738;2023-08-30T06:34:05;95686.88;;;15.25;94.06
31357;BME280;60001;48.404;11.738;2023-08-30T06:35:36;95687.06;;;15.28;92.79
31357;BME280;60001;48.404;11.738;2023-08-30T06:37:09;95681.34;;;15.35;92.57
31357;BME280;60001;48.404;11.738;2023-08-30T06:38:40;95681.72;;;15.42;91.77
31357;BME280;60001;48.404;11.738;2023-08-30T06:40:12;95680.06;;;15.32;92.93
31357;BME280;60001;48.404;11.738;2023-08-30T06:41:43;95683.03;;;15.31;93.23
31357;BME280;60001;48.404;11.738;2023-08-30T06:43:14;95675.53;;;15.33;94.46
31357;BME280;60001;48.404;11.738;2023-08-30T06:44:45;95680.63;;;15.29;94.39
31357;BME280;60001;48.404;11.738;2023-08-30T06:46:17;95678.28;;;15.28;93.14
31357;BME280;60001;48.404;11.738;2023-08-30T06:47:48;95679.59;;;15.30;93.38
31357;BME280;60001;48.404;11.738;2023-08-30T06:49:21;95683.03;;;15.31;93.70
31357;BME280;60001;48.404;11.738;2023-08-30T06:50:56;95680.75;;;15.24;94.69
31357;BME280;60001;48.404;11.738;2023-08-30T06:52:27;95689.22;;;15.26;95.01
31357;BME280;60001;48.404;11.738;2023-08-30T06:53:59;95680.94;;;15.28;94.63
31357;BME280;60001;48.404;11.738;2023-08-30T06:55:31;95690.31;;;15.25;94.11
31357;BME280;60001;48.404;11.738;2023-08-30T06:57:04;95686.16;;;15.33;93.50
31357;BME280;60001;48.404;11.738;2023-08-30T06:58:37;95687.25;;;15.32;93.69
31357;BME280;60001;48.404;11.738;2023-08-30T07:00:09;95687.16;;;15.37;94.40
31357;BME280;60001;48.404;11.738;2023-08-30T07:01:40;95689.69;;;15.42;93.08
31357;BME280;60001;48.404;11.738;2023-08-30T07:03:12;95690.31;;;15.39;93.02
31357;BME280;60001;48.404;11.738;2023-08-30T07:04:44;95690.09;;;15.35;93.37
31357;BME280;60001;48.404;11.738;2023-08-30T07:06:16;95683.41;;;15.38;93.03
31357;BME280;60001;48.404;11.738;2023-08-30T07:07:47;95685.09;;;15.34;93.74
31357;BME280;60001;48.404;11.738;2023-08-30T07:09:19;95684.00;;;15.35;93.67
31357;BME280;60001;48.404;11.738;2023-08-30T07:10:51;95678.69;;;15.35;94.15
31357;BME280;60001;48.404;11.738;2023-08-30T07:12:23;95678.28;;;15.42;94.63
31357;BME280;60001;48.404;11.738;2023-08-30T07:13:53;95672.09;;;15.32;93.81
31357;BME280;60001;48.404;11.738;2023-08-30T07:15:25;95674.66;;;15.38;93.60
31357;BME280;60001;48.404;11.738;2023-08-30T07:16:56;95678.88;;;15.39;94.49
31357;BME280;60001;48.404;11.738;2023-08-30T07:18:29;95678.88;;;15.39;94.23
31357;BME280;60001;48.404;11.738;2023-08-30T07:20:01;95689.22;;;15.40;94.32
31357;BME280;60001;48.404;11.738;2023-08-30T07:21:35;95678.88;;;15.39;95.14
31357;BME280;60001;48.404;11.738;2023-08-30T07:23:08;95687.56;;;15.44;95.44
31357;BME280;60001;48.404;11.738;2023-08-30T07:24:41;95679.38;;;15.41;95.27
31357;BME280;60001;48.404;11.738;2023-08-30T07:26:11;95677.88;;;15.48;95.84
31357;BME280;60001;48.404;11.738;2023-08-30T07:27:43;95687.16;;;15.51;94.80
31357;BME280;60001;48.404;11.738;2023-08-30T07:29:15;95683.19;;;15.48;94.91
31357;BME280;60001;48.404;11.738;2023-08-30T07:30:47;95682.50;;;15.43;95.45
31357;BME280;60001;48.404;11.738;2023-08-30T07:32:18;95681.22;;;15.54;94.67
31357;BME280;60001;48.404;11.738;2023-08-30T07:33:50;95680.34;;;15.58;94.48
31357;BME280;60001;48.404;11.738;2023-08-30T07:35:22;95683.91;;;15.68;93.94
31357;BME280;60001;48.404;11.738;2023-08-30T07:36:54;95683.91;;;15.68;94.23
31357;BME280;60001;48.404;11.738;2023-08-30T07:38:25;95689.91;;;15.73;93.77
31357;BME280;60001;48.404;11.738;2023-08-30T07:39:57;95691.06;;;15.81;92.90
31357;BME280;60001;48.404;11.738;2023-08-30T07:41:28;95686.53;;;15.81;92.64
31357;BME280;60001;48.404;11.738;2023-08-30T07:43:00;95694.03;;;15.79;92.51
31357;BME280;60001;48.404;11.738;2023-08-30T07:44:32;95689.31;;;15.76;91.55
31357;BME280;60001;48.404;11.738;2023-08-30T07:46:03;95689.13;;;15.73;90.63
31357;BME280;60001;48.404;11.738;2023-08-30T07:47:34;95688.09;;;15.82;90.68
31357;BME280;60001;48.404;11.738;2023-08-30T07:49:05;95688.00;;;15.87;91.21
31357;BME280;60001;48.404;11.738;2023-08-30T07:50:38;95693.03;;;15.89;92.53
31357;BME280;60001;48.404;11.738;2023-08-30T07:52:09;95692.22;;;15.88;93.11
31357;BME280;60001;48.404;11.738;2023-08-30T07:53:41;95687.59;;;15.94;92.78
31357;BME280;60001;48.404;11.738;2023-08-30T07:55:13;95698.72;;;15.96;92.83
31357;BME280;60001;48.404;11.738;2023-08-30T07:56:45;95697.84;;;16.01;92.96
31357;BME280;60001;48.404;11.738;2023-08-30T07:58:16;95695.44;;;15.99;92.17
31357;BME280;60001;48.404;11.738;2023-08-30T07:59:48;95696.53;;;15.98;91.66
31357;BME280;60001;48.404;11.738;2023-08-30T08:01:18;95702.84;;;16.02;91.87